sensor_id;sensor_type;location;lat;lon;timestamp;P1;durP1;ratioP1;P2;durP2;ratioP2
10651;SDS011;5374;42.742;23.266;2022-08-03T00:01:40;1.77;;;1.67;;
10651;SDS011;5374;42.742;23.266;2022-08-03T00:04:28;1.87;;;1.53;;
10651;SDS011;5374;42.742;23.266;2022-08-03T00:07:15;1.50;;;1.40;;
10651;SDS011;5374;42.742;23.266;2022-08-03T00:10:03;2.47;;;1.60;;
10651;SDS011;5374;42.742;23.266;2022-08-03T00:12:51;1.50;;;1.40;;
10651;SDS011;5374;42.742;23.266;2022-08-03T00:15:40;1.87;;;1.33;;
10651;SDS011;5374;42.742;23.266;2022-08-03T00:18:28;1.40;;;1.30;;
10651;SDS011;5374;42.742;23.266;2022-08-03T00:21:15;1.90;;;1.40;;
10651;SDS011;5374;42.742;23.266;2022-08-03T00:24:03;1.50;;;1.40;;
10651;SDS011;5374;42.742;23.266;2022-08-03T00:26:51;1.77;;;1.50;;
10651;SDS011;5374;42.742;23.266;2022-08-03T00:29:38;2.90;;;1.50;;
10651;SDS011;5374;42.742;23.266;2022-08-03T00:32:26;1.63;;;1.53;;
10651;SDS011;5374;42.742;23.266;2022-08-03T00:35:14;3.00;;;1.70;;
10651;SDS011;5374;42.742;23.266;2022-08-03T00:38:01;1.90;;;1.43;;
10651;SDS011;5374;42.742;23.266;2022-08-03T00:40:48;2.23;;;1.37;;
10651;SDS011;5374;42.742;23.266;2022-08-03T00:43:35;4.90;;;1.50;;
10651;SDS011;5374;42.742;23.266;2022-08-03T00:46:22;1.60;;;1.50;;
10651;SDS011;5374;42.742;23.266;2022-08-03T00:49:11;1.73;;;1.53;;
10651;SDS011;5374;42.742;23.266;2022-08-03T00:51:58;2.57;;;1.77;;
10651;SDS011;5374;42.742;23.266;2022-08-03T00:54:46;2.53;;;1.70;;
10651;SDS011;5374;42.742;23.266;2022-08-03T00:57:33;2.40;;;1.70;;
10651;SDS011;5374;42.742;23.266;2022-08-03T01:00:22;3.93;;;1.70;;
10651;SDS011;5374;42.742;23.266;2022-08-03T01:03:11;3.03;;;1.50;;
10651;SDS011;5374;42.742;23.266;2022-08-03T01:06:03;2.27;;;1.70;;
10651;SDS011;5374;42.742;23.266;2022-08-03T01:08:59;1.50;;;1.40;;
10651;SDS011;5374;42.742;23.266;2022-08-03T01:11:56;2.63;;;1.50;;
10651;SDS011;5374;42.742;23.266;2022-08-03T01:14:50;3.33;;;1.57;;
10651;SDS011;5374;42.742;23.266;2022-08-03T01:17:43;3.40;;;1.70;;
10651;SDS011;5374;42.742;23.266;2022-08-03T01:20:36;1.60;;;1.50;;
10651;SDS011;5374;42.742;23.266;2022-08-03T01:26:52;2.40;;;1.60;;
10651;SDS011;5374;42.742;23.266;2022-08-03T01:29:55;4.40;;;1.53;;
10651;SDS011;5374;42.742;23.266;2022-08-03T01:32:45;2.63;;;1.80;;
10651;SDS011;5374;42.742;23.266;2022-08-03T01:35:38;1.93;;;1.77;;
10651;SDS011;5374;42.742;23.266;2022-08-03T01:38:31;2.43;;;1.80;;
10651;SDS011;5374;42.742;23.266;2022-08-03T01:41:20;2.50;;;1.80;;
10651;SDS011;5374;42.742;23.266;2022-08-03T01:44:10;1.90;;;1.70;;
10651;SDS011;5374;42.742;23.266;2022-08-03T01:47:00;2.17;;;1.80;;
10651;SDS011;5374;42.742;23.266;2022-08-03T01:49:49;4.60;;;1.67;;
10651;SDS011;5374;42.742;23.266;2022-08-03T01:52:38;3.73;;;1.80;;
10651;SDS011;5374;42.742;23.266;2022-08-03T01:55:26;3.67;;;1.90;;
10651;SDS011;5374;42.742;23.266;2022-08-03T01:58:17;4.57;;;1.73;;
10651;SDS011;5374;42.742;23.266;2022-08-03T02:01:07;2.97;;;1.77;;
10651;SDS011;5374;42.742;23.266;2022-08-03T02:03:57;3.13;;;1.97;;
10651;SDS011;5374;42.742;23.266;2022-08-03T02:06:45;2.07;;;1.83;;
10651;SDS011;5374;42.742;23.266;2022-08-03T02:09:36;2.50;;;1.80;;
10651;SDS011;5374;42.742;23.266;2022-08-03T02:12:24;2.57;;;1.80;;
10651;SDS011;5374;42.742;23.266;2022-08-03T02:15:14;1.73;;;1.50;;
10651;SDS011;5374;42.742;23.266;2022-08-03T02:18:05;1.80;;;1.70;;
10651;SDS011;5374;42.742;23.266;2022-08-03T02:20:56;3.40;;;1.80;;
10651;SDS011;5374;42.742;23.266;2022-08-03T02:23:45;2.97;;;1.93;;
10651;SDS011;5374;42.742;23.266;2022-08-03T02:26:32;2.20;;;1.80;;
10651;SDS011;5374;42.742;23.266;2022-08-03T02:29:28;1.93;;;1.77;;
10651;SDS011;5374;42.742;23.266;2022-08-03T02:32:19;2.33;;;1.90;;
10651;SDS011;5374;42.742;23.266;2022-08-03T02:35:10;2.30;;;1.90;;
10651;SDS011;5374;42.742;23.266;2022-08-03T02:38:02;4.33;;;1.97;;
10651;SDS011;5374;42.742;23.266;2022-08-03T02:40:53;4.63;;;1.90;;
10651;SDS011;5374;42.742;23.266;2022-08-03T02:43:44;2.10;;;1.90;;
10651;SDS011;5374;42.742;23.266;2022-08-03T02:46:35;3.17;;;1.90;;
10651;SDS011;5374;42.742;23.266;2022-08-03T02:49:25;2.60;;;2.40;;
10651;SDS011;5374;42.742;23.266;2022-08-03T02:52:14;2.87;;;2.20;;
10651;SDS011;5374;42.742;23.266;2022-08-03T02:55:04;2.43;;;2.23;;
10651;SDS011;5374;42.742;23.266;2022-08-03T02:57:55;2.70;;;2.50;;
10651;SDS011;5374;42.742;23.266;2022-08-03T03:00:43;5.20;;;2.30;;
10651;SDS011;5374;42.742;23.266;2022-08-03T03:03:32;2.80;;;2.00;;
10651;SDS011;5374;42.742;23.266;2022-08-03T03:06:20;3.30;;;2.03;;
10651;SDS011;5374;42.742;23.266;2022-08-03T03:09:08;2.33;;;2.13;;
10651;SDS011;5374;42.742;23.266;2022-08-03T03:11:58;2.90;;;2.20;;
10651;SDS011;5374;42.742;23.266;2022-08-03T03:14:46;2.83;;;2.30;;
10651;SDS011;5374;42.742;23.266;2022-08-03T03:17:33;4.40;;;2.57;;
10651;SDS011;5374;42.742;23.266;2022-08-03T03:20:22;3.70;;;2.10;;
10651;SDS011;5374;42.742;23.266;2022-08-03T03:23:11;3.03;;;2.23;;
10651;SDS011;5374;42.742;23.266;2022-08-03T03:26:00;3.27;;;2.30;;
10651;SDS011;5374;42.742;23.266;2022-08-03T03:28:49;2.63;;;2.23;;
10651;SDS011;5374;42.742;23.266;2022-08-03T03:31:36;2.30;;;2.03;;
10651;SDS011;5374;42.742;23.266;2022-08-03T03:34:24;2.53;;;2.00;;
10651;SDS011;5374;42.742;23.266;2022-08-03T03:37:11;2.90;;;2.70;;
10651;SDS011;5374;42.742;23.266;2022-08-03T03:39:58;3.83;;;2.20;;
10651;SDS011;5374;42.742;23.266;2022-08-03T03:42:45;3.73;;;2.60;;
10651;SDS011;5374;42.742;23.266;2022-08-03T03:45:35;2.70;;;2.27;;
10651;SDS011;5374;42.742;23.266;2022-08-03T03:48:23;3.07;;;2.37;;
10651;SDS011;5374;42.742;23.266;2022-08-03T03:51:11;2.20;;;2.00;;
10651;SDS011;5374;42.742;23.266;2022-08-03T03:53:59;3.10;;;1.90;;
10651;SDS011;5374;42.742;23.266;2022-08-03T03:56:48;2.10;;;1.90;;
10651;SDS011;5374;42.742;23.266;2022-08-03T03:59:36;2.43;;;2.23;;
10651;SDS011;5374;42.742;23.266;2022-08-03T04:02:25;2.93;;;2.10;;
10651;SDS011;5374;42.742;23.266;2022-08-03T04:05:13;2.00;;;1.80;;
10651;SDS011;5374;42.742;23.266;2022-08-03T04:08:18;2.40;;;2.20;;
10651;SDS011;5374;42.742;23.266;2022-08-03T04:11:23;2.10;;;1.90;;
10651;SDS011;5374;42.742;23.266;2022-08-03T04:14:13;2.27;;;2.07;;
10651;SDS011;5374;42.742;23.266;2022-08-03T04:17:04;2.73;;;2.00;;
10651;SDS011;5374;42.742;23.266;2022-08-03T04:19:54;2.70;;;2.20;;
10651;SDS011;5374;42.742;23.266;2022-08-03T04:22:42;4.03;;;2.30;;
10651;SDS011;5374;42.742;23.266;2022-08-03T04:25:32;3.70;;;2.20;;
10651;SDS011;5374;42.742;23.266;2022-08-03T04:28:21;2.47;;;2.20;;
10651;SDS011;5374;42.742;23.266;2022-08-03T04:31:09;4.53;;;2.13;;
10651;SDS011;5374;42.742;23.266;2022-08-03T04:33:57;3.97;;;2.10;;
10651;SDS011;5374;42.742;23.266;2022-08-03T04:36:46;2.10;;;1.90;;
10651;SDS011;5374;42.742;23.266;2022-08-03T04:39:35;2.03;;;1.77;;
10651;SDS011;5374;42.742;23.266;2022-08-03T04:42:24;2.10;;;1.90;;
10651;SDS011;5374;42.742;23.266;2022-08-03T04:45:12;2.20;;;2.00;;
10651;SDS011;5374;42.742;23.266;2022-08-03T04:48:01;3.03;;;2.20;;
10651;SDS011;5374;42.742;23.266;2022-08-03T04:50:50;3.77;;;2.67;;
10651;SDS011;5374;42.742;23.266;2022-08-03T04:53:39;3.27;;;2.50;;
10651;SDS011;5374;42.742;23.266;2022-08-03T04:56:26;3.53;;;2.67;;
10651;SDS011;5374;42.742;23.266;2022-08-03T04:59:13;6.20;;;2.60;;
10651;SDS011;5374;42.742;23.266;2022-08-03T05:02:02;4.17;;;2.37;;
10651;SDS011;5374;42.742;23.266;2022-08-03T05:04:49;2.73;;;2.47;;
10651;SDS011;5374;42.742;23.266;2022-08-03T05:07:36;4.10;;;2.63;;
10651;SDS011;5374;42.742;23.266;2022-08-03T05:10:26;3.53;;;2.40;;
10651;SDS011;5374;42.742;23.266;2022-08-03T05:13:13;4.90;;;2.35;;
10651;SDS011;5374;42.742;23.266;2022-08-03T05:16:01;2.58;;;2.38;;
10651;SDS011;5374;42.742;23.266;2022-08-03T05:18:48;3.45;;;2.50;;
10651;SDS011;5374;42.742;23.266;2022-08-03T05:21:35;4.72;;;3.15;;
10651;SDS011;5374;42.742;23.266;2022-08-03T05:24:22;4.15;;;2.90;;
10651;SDS011;5374;42.742;23.266;2022-08-03T05:27:10;4.50;;;2.70;;
10651;SDS011;5374;42.742;23.266;2022-08-03T05:30:03;6.22;;;2.42;;
10651;SDS011;5374;42.742;23.266;2022-08-03T05:32:51;3.60;;;2.30;;
10651;SDS011;5374;42.742;23.266;2022-08-03T05:35:38;5.95;;;2.70;;
10651;SDS011;5374;42.742;23.266;2022-08-03T05:38:26;5.20;;;3.60;;
10651;SDS011;5374;42.742;23.266;2022-08-03T05:41:13;4.65;;;3.00;;
10651;SDS011;5374;42.742;23.266;2022-08-03T05:44:01;4.03;;;2.80;;
10651;SDS011;5374;42.742;23.266;2022-08-03T05:46:49;4.22;;;2.72;;
10651;SDS011;5374;42.742;23.266;2022-08-03T05:49:36;8.93;;;3.22;;
10651;SDS011;5374;42.742;23.266;2022-08-03T05:52:23;7.88;;;3.03;;
10651;SDS011;5374;42.742;23.266;2022-08-03T05:55:10;9.55;;;3.28;;
10651;SDS011;5374;42.742;23.266;2022-08-03T05:57:58;7.30;;;2.97;;
10651;SDS011;5374;42.742;23.266;2022-08-03T06:00:48;8.45;;;3.03;;
10651;SDS011;5374;42.742;23.266;2022-08-03T06:03:35;9.02;;;3.38;;
10651;SDS011;5374;42.742;23.266;2022-08-03T06:06:22;8.83;;;3.13;;
10651;SDS011;5374;42.742;23.266;2022-08-03T06:09:09;12.27;;;2.90;;
10651;SDS011;5374;42.742;23.266;2022-08-03T06:11:57;6.33;;;2.63;;
10651;SDS011;5374;42.742;23.266;2022-08-03T06:14:44;6.40;;;2.78;;
10651;SDS011;5374;42.742;23.266;2022-08-03T06:17:32;6.60;;;2.70;;
10651;SDS011;5374;42.742;23.266;2022-08-03T06:20:20;4.43;;;2.40;;
10651;SDS011;5374;42.742;23.266;2022-08-03T06:23:07;3.92;;;2.25;;
10651;SDS011;5374;42.742;23.266;2022-08-03T06:25:54;4.43;;;2.38;;
10651;SDS011;5374;42.742;23.266;2022-08-03T06:28:43;4.93;;;2.20;;
10651;SDS011;5374;42.742;23.266;2022-08-03T06:31:30;3.03;;;1.97;;
10651;SDS011;5374;42.742;23.266;2022-08-03T06:34:19;2.40;;;2.20;;
10651;SDS011;5374;42.742;23.266;2022-08-03T06:37:06;3.63;;;2.00;;
10651;SDS011;5374;42.742;23.266;2022-08-03T06:39:53;3.07;;;1.90;;
10651;SDS011;5374;42.742;23.266;2022-08-03T06:42:40;6.80;;;2.20;;
10651;SDS011;5374;42.742;23.266;2022-08-03T06:45:28;2.70;;;2.10;;
10651;SDS011;5374;42.742;23.266;2022-08-03T06:48:15;2.63;;;2.00;;
10651;SDS011;5374;42.742;23.266;2022-08-03T06:51:04;3.97;;;2.07;;
10651;SDS011;5374;42.742;23.266;2022-08-03T06:53:51;3.80;;;2.27;;
10651;SDS011;5374;42.742;23.266;2022-08-03T06:56:41;5.33;;;2.03;;
10651;SDS011;5374;42.742;23.266;2022-08-03T06:59:30;4.07;;;2.20;;
10651;SDS011;5374;42.742;23.266;2022-08-03T07:02:17;3.03;;;2.27;;
10651;SDS011;5374;42.742;23.266;2022-08-03T07:05:08;4.90;;;2.60;;
10651;SDS011;5374;42.742;23.266;2022-08-03T07:08:00;6.37;;;2.70;;
10651;SDS011;5374;42.742;23.266;2022-08-03T07:10:47;3.37;;;2.50;;
10651;SDS011;5374;42.742;23.266;2022-08-03T07:13:34;3.23;;;2.50;;
10651;SDS011;5374;42.742;23.266;2022-08-03T07:16:21;4.73;;;2.67;;
10651;SDS011;5374;42.742;23.266;2022-08-03T07:19:09;5.07;;;2.40;;
10651;SDS011;5374;42.742;23.266;2022-08-03T07:21:56;4.03;;;2.50;;
10651;SDS011;5374;42.742;23.266;2022-08-03T07:24:45;4.37;;;2.17;;
10651;SDS011;5374;42.742;23.266;2022-08-03T07:27:32;6.33;;;2.30;;
10651;SDS011;5374;42.742;23.266;2022-08-03T07:30:19;3.33;;;2.40;;
10651;SDS011;5374;42.742;23.266;2022-08-03T07:33:06;2.87;;;2.13;;
10651;SDS011;5374;42.742;23.266;2022-08-03T07:35:53;3.77;;;2.53;;
10651;SDS011;5374;42.742;23.266;2022-08-03T07:38:41;2.97;;;2.43;;
10651;SDS011;5374;42.742;23.266;2022-08-03T07:41:30;2.97;;;2.40;;
10651;SDS011;5374;42.742;23.266;2022-08-03T07:44:17;2.60;;;2.40;;
10651;SDS011;5374;42.742;23.266;2022-08-03T07:47:04;3.23;;;2.40;;
10651;SDS011;5374;42.742;23.266;2022-08-03T07:49:52;2.57;;;2.30;;
10651;SDS011;5374;42.742;23.266;2022-08-03T07:52:39;3.63;;;2.10;;
10651;SDS011;5374;42.742;23.266;2022-08-03T07:55:36;2.50;;;2.30;;
10651;SDS011;5374;42.742;23.266;2022-08-03T07:58:25;3.07;;;2.30;;
10651;SDS011;5374;42.742;23.266;2022-08-03T08:01:12;2.50;;;2.30;;
10651;SDS011;5374;42.742;23.266;2022-08-03T08:03:59;2.20;;;2.00;;
10651;SDS011;5374;42.742;23.266;2022-08-03T08:06:46;2.70;;;2.50;;
10651;SDS011;5374;42.742;23.266;2022-08-03T08:09:33;3.35;;;2.40;;
10651;SDS011;5374;42.742;23.266;2022-08-03T08:12:21;2.43;;;2.20;;
10651;SDS011;5374;42.742;23.266;2022-08-03T08:15:10;4.03;;;2.50;;
10651;SDS011;5374;42.742;23.266;2022-08-03T08:17:57;2.92;;;2.70;;
10651;SDS011;5374;42.742;23.266;2022-08-03T08:20:46;2.67;;;2.47;;
10651;SDS011;5374;42.742;23.266;2022-08-03T08:23:34;3.05;;;2.70;;
10651;SDS011;5374;42.742;23.266;2022-08-03T08:26:21;3.13;;;2.33;;
10651;SDS011;5374;42.742;23.266;2022-08-03T08:29:08;2.73;;;2.40;;
10651;SDS011;5374;42.742;23.266;2022-08-03T08:31:56;2.67;;;2.47;;
10651;SDS011;5374;42.742;23.266;2022-08-03T08:34:44;3.43;;;2.50;;
10651;SDS011;5374;42.742;23.266;2022-08-03T08:37:31;3.53;;;2.67;;
10651;SDS011;5374;42.742;23.266;2022-08-03T08:40:19;5.10;;;2.57;;
10651;SDS011;5374;42.742;23.266;2022-08-03T08:43:08;4.60;;;3.17;;
10651;SDS011;5374;42.742;23.266;2022-08-03T08:45:55;2.57;;;2.10;;
10651;SDS011;5374;42.742;23.266;2022-08-03T08:48:47;2.05;;;1.85;;
10651;SDS011;5374;42.742;23.266;2022-08-03T08:51:34;2.20;;;2.00;;
10651;SDS011;5374;42.742;23.266;2022-08-03T08:54:25;2.00;;;1.90;;
10651;SDS011;5374;42.742;23.266;2022-08-03T08:57:13;2.20;;;2.00;;
10651;SDS011;5374;42.742;23.266;2022-08-03T09:00:03;2.17;;;1.98;;
10651;SDS011;5374;42.742;23.266;2022-08-03T09:02:54;2.30;;;2.10;;
10651;SDS011;5374;42.742;23.266;2022-08-03T09:05:43;2.10;;;1.83;;
10651;SDS011;5374;42.742;23.266;2022-08-03T09:08:31;1.75;;;1.65;;
10651;SDS011;5374;42.742;23.266;2022-08-03T09:11:22;1.70;;;1.60;;
10651;SDS011;5374;42.742;23.266;2022-08-03T09:14:09;2.00;;;1.80;;
10651;SDS011;5374;42.742;23.266;2022-08-03T09:16:57;2.08;;;1.85;;
10651;SDS011;5374;42.742;23.266;2022-08-03T09:20:02;1.88;;;1.70;;
10651;SDS011;5374;42.742;23.266;2022-08-03T09:22:54;1.83;;;1.65;;
10651;SDS011;5374;42.742;23.266;2022-08-03T09:25:43;1.90;;;1.70;;
10651;SDS011;5374;42.742;23.266;2022-08-03T09:28:32;2.20;;;2.00;;
10651;SDS011;5374;42.742;23.266;2022-08-03T09:31:28;1.98;;;1.80;;
10651;SDS011;5374;42.742;23.266;2022-08-03T09:34:16;2.22;;;1.92;;
10651;SDS011;5374;42.742;23.266;2022-08-03T09:37:04;17.23;;;4.00;;
10651;SDS011;5374;42.742;23.266;2022-08-03T09:40:06;3.25;;;2.20;;
10651;SDS011;5374;42.742;23.266;2022-08-03T09:42:54;1.98;;;1.80;;
10651;SDS011;5374;42.742;23.266;2022-08-03T09:45:42;1.63;;;1.52;;
10651;SDS011;5374;42.742;23.266;2022-08-03T09:48:30;2.67;;;2.07;;
10651;SDS011;5374;42.742;23.266;2022-08-03T09:51:20;1.80;;;1.70;;
10651;SDS011;5374;42.742;23.266;2022-08-03T09:54:10;3.53;;;1.90;;
10651;SDS011;5374;42.742;23.266;2022-08-03T09:56:59;1.90;;;1.80;;
10651;SDS011;5374;42.742;23.266;2022-08-03T09:59:48;2.87;;;2.50;;
10651;SDS011;5374;42.742;23.266;2022-08-03T10:02:35;2.43;;;1.90;;
10651;SDS011;5374;42.742;23.266;2022-08-03T10:05:30;4.30;;;2.03;;
10651;SDS011;5374;42.742;23.266;2022-08-03T10:08:18;1.83;;;1.73;;
10651;SDS011;5374;42.742;23.266;2022-08-03T10:11:06;2.20;;;2.00;;
10651;SDS011;5374;42.742;23.266;2022-08-03T10:13:54;2.43;;;1.97;;
10651;SDS011;5374;42.742;23.266;2022-08-03T10:16:42;2.43;;;2.03;;
10651;SDS011;5374;42.742;23.266;2022-08-03T10:19:29;2.20;;;2.00;;
10651;SDS011;5374;42.742;23.266;2022-08-03T10:22:18;2.50;;;1.90;;
10651;SDS011;5374;42.742;23.266;2022-08-03T10:25:08;2.10;;;1.83;;
10651;SDS011;5374;42.742;23.266;2022-08-03T10:27:58;2.10;;;1.90;;
10651;SDS011;5374;42.742;23.266;2022-08-03T10:30:52;2.27;;;1.80;;
10651;SDS011;5374;42.742;23.266;2022-08-03T10:33:42;7.33;;;2.30;;
10651;SDS011;5374;42.742;23.266;2022-08-03T10:36:32;3.17;;;1.90;;
10651;SDS011;5374;42.742;23.266;2022-08-03T10:39:25;2.00;;;1.73;;
10651;SDS011;5374;42.742;23.266;2022-08-03T10:42:15;3.00;;;1.80;;
10651;SDS011;5374;42.742;23.266;2022-08-03T10:45:04;2.30;;;1.87;;
10651;SDS011;5374;42.742;23.266;2022-08-03T10:47:54;3.67;;;1.70;;
10651;SDS011;5374;42.742;23.266;2022-08-03T10:50:42;2.20;;;1.70;;
10651;SDS011;5374;42.742;23.266;2022-08-03T10:53:35;1.93;;;1.77;;
10651;SDS011;5374;42.742;23.266;2022-08-03T10:59:55;1.83;;;1.70;;
10651;SDS011;5374;42.742;23.266;2022-08-03T11:06:13;2.03;;;1.80;;
10651;SDS011;5374;42.742;23.266;2022-08-03T11:09:16;2.60;;;1.83;;
10651;SDS011;5374;42.742;23.266;2022-08-03T11:12:12;1.90;;;1.70;;
10651;SDS011;5374;42.742;23.266;2022-08-03T11:15:08;1.90;;;1.80;;
10651;SDS011;5374;42.742;23.266;2022-08-03T11:18:05;3.07;;;1.80;;
10651;SDS011;5374;42.742;23.266;2022-08-03T11:20:56;1.80;;;1.70;;
10651;SDS011;5374;42.742;23.266;2022-08-03T11:23:45;1.80;;;1.70;;
10651;SDS011;5374;42.742;23.266;2022-08-03T11:26:33;1.90;;;1.80;;
10651;SDS011;5374;42.742;23.266;2022-08-03T11:29:26;1.60;;;1.50;;
10651;SDS011;5374;42.742;23.266;2022-08-03T11:32:25;1.97;;;1.77;;
10651;SDS011;5374;42.742;23.266;2022-08-03T11:35:58;3.37;;;1.77;;
10651;SDS011;5374;42.742;23.266;2022-08-03T11:42:09;2.83;;;2.00;;
10651;SDS011;5374;42.742;23.266;2022-08-03T11:45:36;1.80;;;1.60;;
10651;SDS011;5374;42.742;23.266;2022-08-03T11:48:24;1.90;;;1.70;;
10651;SDS011;5374;42.742;23.266;2022-08-03T11:51:23;1.90;;;1.80;;
10651;SDS011;5374;42.742;23.266;2022-08-03T11:54:11;2.50;;;1.70;;
10651;SDS011;5374;42.742;23.266;2022-08-03T11:56:58;1.73;;;1.63;;
10651;SDS011;5374;42.742;23.266;2022-08-03T11:59:45;3.67;;;2.20;;
10651;SDS011;5374;42.742;23.266;2022-08-03T12:02:32;2.37;;;2.00;;
10651;SDS011;5374;42.742;23.266;2022-08-03T12:05:20;5.57;;;2.17;;
10651;SDS011;5374;42.742;23.266;2022-08-03T12:08:27;2.03;;;1.80;;
10651;SDS011;5374;42.742;23.266;2022-08-03T12:11:16;2.13;;;1.93;;
10651;SDS011;5374;42.742;23.266;2022-08-03T12:14:04;1.70;;;1.60;;
10651;SDS011;5374;42.742;23.266;2022-08-03T12:16:51;2.27;;;2.07;;
10651;SDS011;5374;42.742;23.266;2022-08-03T12:19:42;2.00;;;1.80;;
10651;SDS011;5374;42.742;23.266;2022-08-03T12:22:30;2.33;;;2.13;;
10651;SDS011;5374;42.742;23.266;2022-08-03T12:25:23;2.47;;;2.00;;
10651;SDS011;5374;42.742;23.266;2022-08-03T12:28:13;2.83;;;2.00;;
10651;SDS011;5374;42.742;23.266;2022-08-03T12:31:03;3.50;;;2.17;;
10651;SDS011;5374;42.742;23.266;2022-08-03T12:33:56;2.23;;;2.03;;
10651;SDS011;5374;42.742;23.266;2022-08-03T12:36:48;2.27;;;2.07;;
10651;SDS011;5374;42.742;23.266;2022-08-03T12:39:37;2.43;;;2.20;;
10651;SDS011;5374;42.742;23.266;2022-08-03T12:42:30;2.20;;;2.00;;
10651;SDS011;5374;42.742;23.266;2022-08-03T12:45:17;3.93;;;2.07;;
10651;SDS011;5374;42.742;23.266;2022-08-03T12:48:07;2.00;;;1.80;;
10651;SDS011;5374;42.742;23.266;2022-08-03T12:51:06;1.97;;;1.87;;
10651;SDS011;5374;42.742;23.266;2022-08-03T12:53:56;2.40;;;2.20;;
10651;SDS011;5374;42.742;23.266;2022-08-03T12:56:55;2.87;;;2.23;;
10651;SDS011;5374;42.742;23.266;2022-08-03T12:59:44;2.73;;;2.17;;
10651;SDS011;5374;42.742;23.266;2022-08-03T13:02:32;1.97;;;1.87;;
10651;SDS011;5374;42.742;23.266;2022-08-03T13:05:20;2.90;;;1.87;;
10651;SDS011;5374;42.742;23.266;2022-08-03T13:08:16;1.83;;;1.73;;
10651;SDS011;5374;42.742;23.266;2022-08-03T13:11:16;1.87;;;1.77;;
10651;SDS011;5374;42.742;23.266;2022-08-03T13:14:07;2.13;;;1.93;;
10651;SDS011;5374;42.742;23.266;2022-08-03T13:16:56;3.77;;;2.10;;
10651;SDS011;5374;42.742;23.266;2022-08-03T13:19:44;2.40;;;2.20;;
10651;SDS011;5374;42.742;23.266;2022-08-03T13:22:32;3.10;;;2.47;;
10651;SDS011;5374;42.742;23.266;2022-08-03T13:25:19;3.40;;;2.30;;
10651;SDS011;5374;42.742;23.266;2022-08-03T13:28:06;2.33;;;2.10;;
10651;SDS011;5374;42.742;23.266;2022-08-03T13:30:53;2.40;;;2.10;;
10651;SDS011;5374;42.742;23.266;2022-08-03T13:33:42;3.17;;;2.47;;
10651;SDS011;5374;42.742;23.266;2022-08-03T13:36:29;2.77;;;2.20;;
10651;SDS011;5374;42.742;23.266;2022-08-03T13:39:16;6.43;;;2.20;;
10651;SDS011;5374;42.742;23.266;2022-08-03T13:42:04;2.30;;;2.10;;
10651;SDS011;5374;42.742;23.266;2022-08-03T13:44:51;2.37;;;2.10;;
10651;SDS011;5374;42.742;23.266;2022-08-03T13:47:38;3.73;;;2.00;;
10651;SDS011;5374;42.742;23.266;2022-08-03T13:50:27;2.97;;;2.10;;
10651;SDS011;5374;42.742;23.266;2022-08-03T13:53:14;2.20;;;2.00;;
10651;SDS011;5374;42.742;23.266;2022-08-03T13:56:01;3.03;;;1.90;;
10651;SDS011;5374;42.742;23.266;2022-08-03T13:58:49;2.20;;;2.00;;
10651;SDS011;5374;42.742;23.266;2022-08-03T14:01:36;1.87;;;1.77;;
10651;SDS011;5374;42.742;23.266;2022-08-03T14:04:23;2.40;;;2.20;;
10651;SDS011;5374;42.742;23.266;2022-08-03T14:07:11;2.30;;;2.10;;
10651;SDS011;5374;42.742;23.266;2022-08-03T14:09:59;3.23;;;2.27;;
10651;SDS011;5374;42.742;23.266;2022-08-03T14:12:46;3.13;;;2.23;;
10651;SDS011;5374;42.742;23.266;2022-08-03T14:15:33;2.00;;;1.90;;
10651;SDS011;5374;42.742;23.266;2022-08-03T14:18:20;3.40;;;2.20;;
10651;SDS011;5374;42.742;23.266;2022-08-03T14:21:08;4.03;;;2.47;;
10651;SDS011;5374;42.742;23.266;2022-08-03T14:23:56;3.00;;;2.37;;
10651;SDS011;5374;42.742;23.266;2022-08-03T14:26:43;3.70;;;2.30;;
10651;SDS011;5374;42.742;23.266;2022-08-03T14:29:31;2.10;;;1.90;;
10651;SDS011;5374;42.742;23.266;2022-08-03T14:32:18;12.90;;;3.60;;
10651;SDS011;5374;42.742;23.266;2022-08-03T14:35:05;5.00;;;2.30;;
10651;SDS011;5374;42.742;23.266;2022-08-03T14:37:53;3.93;;;2.70;;
10651;SDS011;5374;42.742;23.266;2022-08-03T14:40:42;5.10;;;2.70;;
10651;SDS011;5374;42.742;23.266;2022-08-03T14:43:30;5.30;;;3.33;;
10651;SDS011;5374;42.742;23.266;2022-08-03T14:46:17;22.37;;;5.27;;
10651;SDS011;5374;42.742;23.266;2022-08-03T14:49:04;20.00;;;5.70;;
10651;SDS011;5374;42.742;23.266;2022-08-03T14:51:51;7.20;;;3.40;;
10651;SDS011;5374;42.742;23.266;2022-08-03T14:54:38;6.90;;;4.40;;
10651;SDS011;5374;42.742;23.266;2022-08-03T14:57:30;10.77;;;4.83;;
10651;SDS011;5374;42.742;23.266;2022-08-03T15:00:17;5.17;;;3.97;;
10651;SDS011;5374;42.742;23.266;2022-08-03T15:03:04;4.67;;;2.90;;
10651;SDS011;5374;42.742;23.266;2022-08-03T15:05:52;7.93;;;4.50;;
10651;SDS011;5374;42.742;23.266;2022-08-03T15:08:40;9.57;;;5.00;;
10651;SDS011;5374;42.742;23.266;2022-08-03T15:11:27;11.23;;;8.33;;
10651;SDS011;5374;42.742;23.266;2022-08-03T15:14:16;3.23;;;2.93;;
10651;SDS011;5374;42.742;23.266;2022-08-03T15:17:03;4.57;;;2.70;;
10651;SDS011;5374;42.742;23.266;2022-08-03T15:19:50;8.07;;;3.03;;
10651;SDS011;5374;42.742;23.266;2022-08-03T15:22:38;3.50;;;2.50;;
10651;SDS011;5374;42.742;23.266;2022-08-03T15:25:25;2.57;;;2.17;;
10651;SDS011;5374;42.742;23.266;2022-08-03T15:28:12;2.80;;;2.40;;
10651;SDS011;5374;42.742;23.266;2022-08-03T15:31:01;2.40;;;2.20;;
10651;SDS011;5374;42.742;23.266;2022-08-03T15:33:48;6.90;;;2.63;;
10651;SDS011;5374;42.742;23.266;2022-08-03T15:36:35;6.93;;;3.10;;
10651;SDS011;5374;42.742;23.266;2022-08-03T15:39:22;4.43;;;3.40;;
10651;SDS011;5374;42.742;23.266;2022-08-03T15:42:10;3.90;;;2.80;;
10651;SDS011;5374;42.742;23.266;2022-08-03T15:44:57;3.20;;;2.47;;
10651;SDS011;5374;42.742;23.266;2022-08-03T15:47:46;4.87;;;2.60;;
10651;SDS011;5374;42.742;23.266;2022-08-03T15:50:42;3.67;;;2.70;;
10651;SDS011;5374;42.742;23.266;2022-08-03T15:53:30;4.07;;;2.70;;
10651;SDS011;5374;42.742;23.266;2022-08-03T15:56:18;3.23;;;2.60;;
10651;SDS011;5374;42.742;23.266;2022-08-03T15:59:12;4.17;;;2.80;;
10651;SDS011;5374;42.742;23.266;2022-08-03T16:01:59;3.40;;;3.10;;
10651;SDS011;5374;42.742;23.266;2022-08-03T16:04:48;3.30;;;2.73;;
10651;SDS011;5374;42.742;23.266;2022-08-03T16:07:38;3.93;;;2.50;;
10651;SDS011;5374;42.742;23.266;2022-08-03T16:10:30;3.97;;;2.80;;
10651;SDS011;5374;42.742;23.266;2022-08-03T16:13:17;3.13;;;2.83;;
10651;SDS011;5374;42.742;23.266;2022-08-03T16:16:05;2.80;;;2.60;;
10651;SDS011;5374;42.742;23.266;2022-08-03T16:18:52;4.50;;;3.00;;
10651;SDS011;5374;42.742;23.266;2022-08-03T16:21:40;4.70;;;3.37;;
10651;SDS011;5374;42.742;23.266;2022-08-03T16:24:27;4.63;;;3.07;;
10651;SDS011;5374;42.742;23.266;2022-08-03T16:27:14;3.23;;;2.83;;
10651;SDS011;5374;42.742;23.266;2022-08-03T16:30:02;4.70;;;2.60;;
10651;SDS011;5374;42.742;23.266;2022-08-03T16:32:50;2.83;;;2.57;;
10651;SDS011;5374;42.742;23.266;2022-08-03T16:35:39;2.40;;;2.20;;
10651;SDS011;5374;42.742;23.266;2022-08-03T16:38:27;2.37;;;2.10;;
10651;SDS011;5374;42.742;23.266;2022-08-03T16:41:15;2.93;;;1.97;;
10651;SDS011;5374;42.742;23.266;2022-08-03T16:44:02;2.73;;;2.47;;
10651;SDS011;5374;42.742;23.266;2022-08-03T16:46:50;4.70;;;2.20;;
10651;SDS011;5374;42.742;23.266;2022-08-03T16:49:38;2.77;;;2.33;;
10651;SDS011;5374;42.742;23.266;2022-08-03T16:52:25;2.67;;;1.83;;
10651;SDS011;5374;42.742;23.266;2022-08-03T16:55:14;2.10;;;1.90;;
10651;SDS011;5374;42.742;23.266;2022-08-03T16:58:01;2.70;;;1.87;;
10651;SDS011;5374;42.742;23.266;2022-08-03T17:00:49;2.40;;;2.07;;
10651;SDS011;5374;42.742;23.266;2022-08-03T17:03:36;3.43;;;2.40;;
10651;SDS011;5374;42.742;23.266;2022-08-03T17:06:25;2.37;;;2.17;;
10651;SDS011;5374;42.742;23.266;2022-08-03T17:09:14;2.60;;;2.27;;
10651;SDS011;5374;42.742;23.266;2022-08-03T17:12:05;2.27;;;2.00;;
10651;SDS011;5374;42.742;23.266;2022-08-03T17:14:53;3.20;;;2.13;;